Time;durP1;ratioP1;P1;durP2;ratioP2;P2;SDS_P1;SDS_P2;PMS_P1;PMS_P2;Temp;Humidity;BMP_temperature;BMP_pressure;BME280_temperature;BME280_humidity;BME280_pressure;Samples;Min_cycle;Max_cycle;Signal;HPM_P1;HPM_P2
2021/08/30 00:00:29;;;;;;;14.68;8.30;;;;;;;12.00;100.00;95633.19;1018948;28;20034;-66
2021/08/30 00:00:59;;;;;;;13.48;8.65;;;;;;;11.97;100.00;95628.47;1023572;28;20030;-65
2021/08/30 00:01:29;;;;;;;13.63;8.05;;;;;;;11.83;100.00;95607.25;1018722;28;20090;-65
2021/08/30 00:02:00;;;;;;;12.10;8.40;;;;;;;11.96;100.00;95627.69;1023422;28;20027;-65
2021/08/30 00:02:30;;;;;;;16.70;8.77;;;;;;;11.99;100.00;95631.63;1030566;28;20019;-63
2021/08/30 00:03:01;;;;;;;11.93;8.27;;;;;;;11.98;100.00;95630.06;1035431;28;20084;-65
2021/08/30 00:03:31;;;;;;;12.88;8.60;;;;;;;11.99;100.00;95626.38;1039379;28;20439;-66
2021/08/30 00:04:02;;;;;;;13.18;7.90;;;;;;;11.97;100.00;95624.03;1035352;28;20125;-65
2021/08/30 00:04:32;;;;;;;15.00;8.40;;;;;;;11.97;100.00;95626.66;1031152;28;20038;-65
2021/08/30 00:05:04;;;;;;;12.27;8.15;;;;;;;12.00;100.00;95628.75;1031476;28;20025;-65
2021/08/30 00:05:34;;;;;;;13.63;8.35;;;;;;;11.97;100.00;95621.41;1031429;28;20026;-65
2021/08/30 00:06:05;;;;;;;13.05;7.95;;;;;;;11.99;100.00;95627.16;1035354;28;20253;-64
2021/08/30 00:06:35;;;;;;;14.80;8.13;;;;;;;11.96;100.00;95627.69;1031328;28;20436;-65
2021/08/30 00:07:05;;;;;;;11.35;7.82;;;;;;;12.00;100.00;95626.13;1031148;28;20022;-66
2021/08/30 00:07:36;;;;;;;11.63;7.78;;;;;;;12.00;100.00;95630.56;1030526;28;20029;-65
2021/08/30 00:08:06;;;;;;;14.13;7.47;;;;;;;12.00;100.00;95628.75;1035477;28;20038;-65
2021/08/30 00:08:38;;;;;;;11.10;7.53;;;;;;;11.99;100.00;95621.13;1035606;28;20022;-65
2021/08/30 00:09:09;;;;;;;13.90;8.23;;;;;;;11.98;100.00;95620.34;1039292;28;20388;-65
2021/08/30 00:09:40;;;;;;;11.48;7.53;;;;;;;11.95;100.00;95613.00;1039439;28;20272;-66
2021/08/30 00:10:11;;;;;;;14.88;8.05;;;;;;;12.02;100.00;95621.34;1031252;28;20088;-66
2021/08/30 00:10:42;;;;;;;15.25;8.52;;;;;;;12.01;100.00;95626.91;1027209;28;20746;-65
2021/08/30 00:11:13;;;;;;;12.57;8.32;;;;;;;11.98;100.00;95615.06;1026593;28;20077;-64
2021/08/30 00:11:43;;;;;;;11.95;7.57;;;;;;;11.95;100.00;95609.59;1027399;28;20258;-66
2021/08/30 00:12:13;;;;;;;11.90;8.00;;;;;;;11.99;100.00;95621.13;1031840;28;20041;-67
2021/08/30 00:12:44;;;;;;;12.07;7.32;;;;;;;11.98;100.00;95620.34;1031018;28;20025;-66
2021/08/30 00:13:14;;;;;;;12.02;7.43;;;;;;;11.99;100.00;95615.84;1031107;28;20023;-65
2021/08/30 00:13:45;;;;;;;11.80;7.68;;;;;;;12.00;100.00;95620.84;1023567;29;20151;-66
2021/08/30 00:14:16;;;;;;;11.98;7.72;;;;;;;11.98;100.00;95617.72;1031103;28;20487;-66
2021/08/30 00:14:46;;;;;;;9.93;7.03;;;;;;;11.87;100.00;95594.38;1035595;28;20093;-65
2021/08/30 00:15:17;;;;;;;11.77;7.38;;;;;;;11.94;100.00;95614.06;1035234;28;20022;-65
2021/08/30 00:15:47;;;;;;;13.05;8.02;;;;;;;11.96;100.00;95617.19;1035161;28;20415;-65
2021/08/30 00:16:18;;;;;;;13.38;8.75;;;;;;;11.98;100.00;95619.56;1031226;28;20435;-65
2021/08/30 00:16:48;;;;;;;10.35;7.68;;;;;;;11.97;100.00;95621.41;1035402;28;20040;-66
2021/08/30 00:17:19;;;;;;;16.60;9.35;;;;;;;11.98;100.00;95619.56;1031324;28;20452;-65
2021/08/30 00:17:51;;;;;;;12.77;7.95;;;;;;;11.98;100.00;95620.34;1027410;28;20030;-65
2021/08/30 00:18:22;;;;;;;13.05;8.60;;;;;;;11.99;100.00;95607.97;1031204;28;20274;-65
2021/08/30 00:18:52;;;;;;;11.18;8.07;;;;;;;12.00;100.00;95612.97;1023414;29;20255;-64
2021/08/30 00:19:22;;;;;;;12.65;8.65;;;;;;;11.98;100.00;95609.03;1027285;28;20363;-65
2021/08/30 00:19:53;;;;;;;12.43;8.45;;;;;;;12.01;100.00;95614.53;1031193;28;20023;-65
2021/08/30 00:20:23;;;;;;;10.57;7.55;;;;;;;11.95;100.00;95615.63;1031348;28;20027;-65
2021/08/30 00:20:54;;;;;;;13.75;8.05;;;;;;;11.94;100.00;95603.53;1031144;28;20038;-65
2021/08/30 00:21:24;;;;;;;9.90;7.80;;;;;;;11.93;100.00;95606.44;1025313;28;20023;-64
2021/08/30 00:21:55;;;;;;;14.73;8.75;;;;;;;12.00;100.00;95618.22;1027278;28;20479;-65
2021/08/30 00:22:25;;;;;;;11.70;8.27;;;;;;;11.97;100.00;95610.06;1027278;28;20023;-66
2021/08/30 00:22:56;;;;;;;11.90;8.65;;;;;;;11.91;100.00;95601.47;1027201;28;20022;-65
2021/08/30 00:23:26;;;;;;;14.05;9.20;;;;;;;11.97;100.00;95610.88;1034640;28;20387;-66
2021/08/30 00:23:56;;;;;;;13.77;8.93;;;;;;;11.96;100.00;95611.94;1035284;28;20018;-66
2021/08/30 00:24:27;;;;;;;14.95;9.13;;;;;;;11.97;100.00;95608.25;1035483;28;20042;-65
2021/08/30 00:24:57;;;;;;;13.55;8.75;;;;;;;11.95;100.00;95607.72;1031139;28;20027;-64
2021/08/30 00:25:28;;;;;;;13.85;8.75;;;;;;;12.00;100.00;95612.97;1031148;28;20030;-65
2021/08/30 00:25:59;;;;;;;12.25;8.50;;;;;;;11.99;100.00;95610.59;1031357;28;20022;-64
2021/08/30 00:26:30;;;;;;;14.13;8.68;;;;;;;12.00;100.00;95605.06;1031104;28;20117;-64
2021/08/30 00:27:00;;;;;;;15.85;9.05;;;;;;;12.00;100.00;95609.53;1027693;28;20270;-65
2021/08/30 00:27:31;;;;;;;19.13;9.25;;;;;;;11.94;100.00;95597.50;1031134;28;20022;-64
2021/08/30 00:28:01;;;;;;;13.52;8.95;;;;;;;11.95;100.00;95599.06;1023271;28;20640;-65
2021/08/30 00:28:32;;;;;;;14.43;8.48;;;;;;;11.92;100.00;95605.66;1027221;28;20452;-65
2021/08/30 00:29:02;;;;;;;13.35;9.00;;;;;;;11.97;100.00;95603.00;1027214;28;20023;-66
2021/08/30 00:29:33;;;;;;;14.98;9.63;;;;;;;11.98;100.00;95606.41;1026961;28;20027;-65
2021/08/30 00:30:05;;;;;;;12.18;8.82;;;;;;;11.96;100.00;95609.28;1027081;28;20095;-65
2021/08/30 00:30:35;;;;;;;14.40;8.40;;;;;;;11.97;100.00;95603.00;1027206;28;20081;-66
2021/08/30 00:31:06;;;;;;;12.68;8.68;;;;;;;11.99;100.00;95600.06;1027317;28;21025;-65
2021/08/30 00:31:39;;;;;;;13.98;9.57;;;;;;;11.98;100.00;95598.53;1027303;28;20388;-66
2021/08/30 00:32:12;;;;;;;11.13;8.07;;;;;;;11.97;100.00;95608.25;1031222;28;20027;-64
2021/08/30 00:32:43;;;;;;;14.73;8.43;;;;;;;11.96;100.00;95601.41;1033191;28;20307;-65
2021/08/30 00:33:13;;;;;;;13.38;8.68;;;;;;;11.94;100.00;95595.66;1039177;28;20780;-64
2021/08/30 00:33:44;;;;;;;16.25;10.23;;;;;;;11.96;100.00;95601.41;1035131;28;20737;-65
2021/08/30 00:34:14;;;;;;;16.17;9.30;;;;;;;11.97;100.00;95607.44;1034486;28;20029;-65
2021/08/30 00:34:45;;;;;;;15.07;9.75;;;;;;;11.97;100.00;95602.19;1035310;28;20053;-65
2021/08/30 00:35:15;;;;;;;16.67;9.80;;;;;;;11.95;100.00;95597.22;1037738;28;20030;-65
2021/08/30 00:35:45;;;;;;;15.40;9.40;;;;;;;11.92;100.00;95599.59;1039352;28;20018;-65
2021/08/30 00:36:16;;;;;;;12.90;9.00;;;;;;;11.96;100.00;95605.88;1038589;28;20022;-65
2021/08/30 00:36:47;;;;;;;12.32;9.00;;;;;;;11.94;100.00;95602.75;1035602;28;20026;-66
2021/08/30 00:37:17;;;;;;;17.05;10.23;;;;;;;11.95;100.00;95610.34;1027181;28;20501;-65
2021/08/30 00:37:48;;;;;;;11.52;9.23;;;;;;;11.97;100.00;95602.19;1026794;28;20030;-66
2021/08/30 00:38:18;;;;;;;15.02;9.93;;;;;;;11.82;100.00;95582.03;1021646;28;20027;-64
2021/08/30 00:38:49;;;;;;;15.15;9.40;;;;;;;11.99;100.00;95602.72;1027415;28;20023;-65
2021/08/30 00:39:20;;;;;;;13.77;9.65;;;;;;;11.98;100.00;95603.78;1027227;28;20034;-66
2021/08/30 00:39:51;;;;;;;14.55;9.27;;;;;;;11.96;100.00;95598.78;1027260;28;20119;-64
2021/08/30 00:40:22;;;;;;;13.77;9.18;;;;;;;11.97;100.00;95603.00;1027246;28;20651;-66
2021/08/30 00:40:52;;;;;;;16.38;9.63;;;;;;;11.98;100.00;95604.56;1029901;28;20046;-64
2021/08/30 00:41:23;;;;;;;14.32;9.70;;;;;;;11.97;100.00;95600.38;1034696;28;20272;-65
2021/08/30 00:41:54;;;;;;;13.07;9.00;;;;;;;11.96;100.00;95606.66;1031000;28;20026;-65
2021/08/30 00:42:24;;;;;;;14.65;10.02;;;;;;;11.98;100.00;95596.66;1030271;28;20030;-65
2021/08/30 00:42:55;;;;;;;15.25;9.40;;;;;;;11.96;100.00;95604.03;1027466;28;20031;-66
2021/08/30 00:43:25;;;;;;;14.20;9.18;;;;;;;12.00;100.00;95605.06;1031422;28;20093;-65
2021/08/30 00:43:56;;;;;;;13.43;9.68;;;;;;;11.96;100.00;95601.41;1027237;28;20022;-65
2021/08/30 00:44:28;;;;;;;15.25;9.38;;;;;;;11.98;100.00;95604.56;1026650;28;20035;-65
2021/08/30 00:45:00;;;;;;;17.77;10.13;;;;;;;11.98;100.00;95603.78;1027999;28;20101;-65
2021/08/30 00:45:31;;;;;;;17.58;10.32;;;;;;;11.95;100.00;95602.47;1035861;28;20766;-64
2021/08/30 00:46:02;;;;;;;16.42;10.27;;;;;;;11.89;100.00;95593.03;1035202;28;20272;-65
2021/08/30 00:46:32;;;;;;;14.05;9.70;;;;;;;11.93;100.00;95599.31;1035551;28;20105;-65
2021/08/30 00:47:03;;;;;;;15.45;9.73;;;;;;;11.88;100.00;95590.72;1027511;28;20034;-65
2021/08/30 00:47:38;;;;;;;13.05;8.65;;;;;;;11.93;100.00;95601.94;1021649;29;20023;-65
2021/08/30 00:48:08;;;;;;;12.50;9.80;;;;;;;11.88;100.00;95593.34;1015539;29;20032;-65
2021/08/30 00:48:41;;;;;;;13.27;9.55;;;;;;;11.94;100.00;95602.75;1019800;29;20263;-65
2021/08/30 00:49:12;;;;;;;13.98;9.55;;;;;;;11.92;100.00;95595.13;1021131;28;20024;-64
2021/08/30 00:49:44;;;;;;;12.25;8.82;;;;;;;11.90;100.00;95591.19;1027976;28;20310;-65
2021/08/30 00:50:15;;;;;;;12.10;8.50;;;;;;;11.89;100.00;95590.41;1027408;28;20574;-66
2021/08/30 00:50:45;;;;;;;15.90;9.63;;;;;;;11.93;100.00;95595.91;1027664;28;20758;-66
2021/08/30 00:51:17;;;;;;;13.48;9.85;;;;;;;11.93;100.00;95594.06;1030165;28;20278;-65
2021/08/30 00:51:48;;;;;;;16.80;10.27;;;;;;;11.93;100.00;95598.53;1031155;28;20038;-65
2021/08/30 00:52:18;;;;;;;14.13;9.52;;;;;;;11.89;100.00;95589.63;1027280;28;20672;-65
2021/08/30 00:52:49;;;;;;;12.98;8.60;;;;;;;11.86;100.00;95590.97;1029528;28;20027;-66
2021/08/30 00:53:19;;;;;;;16.25;10.48;;;;;;;11.91;100.00;95601.47;1027159;28;20030;-66
2021/08/30 00:53:50;;;;;;;13.82;9.45;;;;;;;11.90;100.00;95594.59;1031458;28;20026;-65
2021/08/30 00:54:20;;;;;;;14.02;9.32;;;;;;;11.92;100.00;95595.13;1035180;28;20022;-66
2021/08/30 00:54:52;;;;;;;16.13;10.45;;;;;;;11.93;100.00;95601.16;1035436;28;20045;-65
2021/08/30 00:55:22;;;;;;;13.23;9.02;;;;;;;11.89;100.00;95600.94;1039081;28;20022;-65
2021/08/30 00:55:52;;;;;;;14.40;10.18;;;;;;;11.86;100.00;95593.59;1035870;28;20769;-65
2021/08/30 00:56:23;;;;;;;15.13;10.27;;;;;;;11.86;100.00;95592.81;1039175;28;20036;-66
2021/08/30 00:56:53;;;;;;;10.93;8.63;;;;;;;11.82;100.00;95586.50;1035366;28;20022;-65
2021/08/30 00:57:24;;;;;;;14.90;9.88;;;;;;;11.88;100.00;95598.59;1031534;28;20054;-65
2021/08/30 00:57:54;;;;;;;16.05;10.68;;;;;;;11.88;100.00;95594.13;1025580;28;20079;-64
2021/08/30 00:58:25;;;;;;;12.10;9.45;;;;;;;11.86;100.00;95590.97;1023483;28;20168;-65
2021/08/30 00:58:55;;;;;;;15.30;10.23;;;;;;;11.86;100.00;95592.81;1027277;28;20092;-66
2021/08/30 00:59:26;;;;;;;13.68;9.88;;;;;;;11.91;100.00;95595.41;1022929;29;20028;-64
2021/08/30 00:59:56;;;;;;;15.32;9.95;;;;;;;11.93;100.00;95596.69;1027520;28;20030;-65
2021/08/30 01:00:27;;;;;;;17.08;10.45;;;;;;;11.93;100.00;95594.06;1027282;28;20401;-65
2021/08/30 01:00:58;;;;;;;14.23;9.90;;;;;;;11.91;100.00;95598.03;1023196;28;20035;-65
2021/08/30 01:01:28;;;;;;;12.95;9.52;;;;;;;11.89;100.00;95600.16;1026501;28;20328;-65
2021/08/30 01:01:59;;;;;;;14.85;9.95;;;;;;;11.90;100.00;95591.97;1027307;28;20031;-65
2021/08/30 01:02:29;;;;;;;13.13;9.75;;;;;;;11.90;100.00;95596.44;1031648;28;20046;-66
2021/08/30 01:03:00;;;;;;;16.13;10.23;;;;;;;11.91;100.00;95605.94;1041038;28;20034;-66
2021/08/30 01:03:30;;;;;;;12.07;9.50;;;;;;;11.81;100.00;95588.34;1039238;28;20045;-65
2021/08/30 01:04:00;;;;;;;15.57;9.45;;;;;;;11.87;100.00;95595.19;1031353;28;20033;-66
2021/08/30 01:04:31;;;;;;;14.70;9.68;;;;;;;11.86;100.00;95593.59;1026090;28;20022;-64
2021/08/30 01:05:01;;;;;;;12.82;9.18;;;;;;;11.82;100.00;95589.91;1027182;28;20069;-66
2021/08/30 01:05:32;;;;;;;14.98;9.82;;;;;;;11.84;100.00;95593.09;1023400;28;20027;-65
2021/08/30 01:06:20;;;;;;;16.48;9.82;;;;;;;11.89;100.00;95598.31;1027317;28;20033;-64
2021/08/30 01:06:57;;;;;;;13.15;9.70;;;;;;;11.86;100.00;95593.59;1025847;28;20031;-64
2021/08/30 01:07:35;;;;;;;14.63;9.85;;;;;;;11.85;100.00;95597.28;1027087;28;20277;-65
2021/08/30 01:08:12;;;;;;;10.65;8.32;;;;;;;11.87;100.00;95597.00;1029106;28;20270;-65
2021/08/30 01:08:48;;;;;;;12.55;8.88;;;;;;;11.88;100.00;95596.75;1027192;28;20270;-65
2021/08/30 01:09:27;;;;;;;14.02;9.52;;;;;;;11.87;100.00;95605.69;1022957;28;20277;-65
2021/08/30 01:10:02;;;;;;;13.10;9.50;;;;;;;11.86;100.00;95601.47;1022141;28;20278;-65
2021/08/30 01:11:09;;;;;;;12.98;9.13;;;;;;;11.88;100.00;95603.84;1019243;29;20291;-65
2021/08/30 01:11:42;;;;;;;12.30;8.98;;;;;;;11.84;100.00;95597.50;1009112;29;20355;-65
2021/08/30 01:12:16;;;;;;;15.82;8.95;;;;;;;11.85;100.00;95593.88;1012443;29;20281;-65
2021/08/30 01:12:59;;;;;;;14.70;9.57;;;;;;;11.85;100.00;95592.03;1020944;29;20633;-65
2021/08/30 01:13:33;;;;;;;12.00;9.18;;;;;;;11.84;100.00;95598.34;1026852;28;20862;-65
2021/08/30 01:14:06;;;;;;;13.82;9.25;;;;;;;11.86;100.00;95596.22;1023379;29;20274;-65
2021/08/30 01:14:41;;;;;;;16.83;10.13;;;;;;;11.86;100.00;95596.22;1023212;29;20313;-65
2021/08/30 01:15:14;;;;;;;14.48;9.52;;;;;;;11.83;100.00;95585.44;1023437;29;20270;-66
2021/08/30 01:15:45;;;;;;;11.32;8.43;;;;;;;11.86;100.00;95596.22;1031141;28;20281;-65
2021/08/30 01:16:16;;;;;;;12.75;9.15;;;;;;;11.86;100.00;95593.59;1031353;28;20265;-65
2021/08/30 01:16:46;;;;;;;10.13;8.23;;;;;;;11.82;100.00;95589.91;1038049;28;20024;-65
2021/08/30 01:17:17;;;;;;;13.35;9.00;;;;;;;11.88;100.00;95602.00;1019209;29;20052;-65
2021/08/30 01:17:48;;;;;;;12.85;9.48;;;;;;;11.85;100.00;95594.66;1019198;29;20389;-66
2021/08/30 01:18:20;;;;;;;11.65;9.25;;;;;;;11.87;100.00;95597.81;1019121;29;20035;-65
2021/08/30 01:18:51;;;;;;;14.40;10.38;;;;;;;11.86;100.00;95601.47;1024025;28;20566;-64
2021/08/30 01:19:28;;;;;;;13.25;10.25;;;;;;;11.88;100.00;95590.72;1027617;28;20278;-65
2021/08/30 01:20:01;;;;;;;15.50;10.35;;;;;;;11.90;100.00;95597.25;1030997;28;20029;-65
2021/08/30 01:20:48;;;;;;;12.95;10.10;;;;;;;11.89;100.00;95589.63;1028650;28;20270;-64
2021/08/30 01:21:20;;;;;;;15.73;10.27;;;;;;;11.89;100.00;95595.69;1026366;28;20272;-65
2021/08/30 01:21:51;;;;;;;16.60;10.30;;;;;;;11.89;100.00;95595.69;1025985;28;20361;-64
2021/08/30 01:22:21;;;;;;;15.82;10.35;;;;;;;11.84;100.00;95590.47;1025700;28;20291;-65
2021/08/30 01:22:52;;;;;;;16.20;10.10;;;;;;;11.87;100.00;95589.91;1029455;28;20094;-64
2021/08/30 01:23:23;;;;;;;13.77;9.32;;;;;;;11.88;100.00;95590.72;1026343;28;20022;-65
2021/08/30 01:24:05;;;;;;;12.35;9.30;;;;;;;11.88;100.00;95588.06;1019075;29;20299;-64
2021/08/30 01:24:35;;;;;;;12.30;8.65;;;;;;;11.87;100.00;95599.63;1019357;29;20302;-65
2021/08/30 01:25:06;;;;;;;13.82;9.50;;;;;;;11.88;100.00;95591.47;1024482;28;20270;-65
2021/08/30 01:25:37;;;;;;;14.68;10.07;;;;;;;11.87;100.00;95592.56;1027105;28;20070;-65
2021/08/30 01:26:08;;;;;;;13.73;9.48;;;;;;;11.88;100.00;95588.06;1023216;29;20286;-66
2021/08/30 01:26:43;;;;;;;18.92;10.60;;;;;;;11.88;100.00;95596.75;1016979;29;20099;-65
2021/08/30 01:27:14;;;;;;;14.73;10.05;;;;;;;11.90;100.00;95585.94;1028089;28;20277;-64
2021/08/30 01:27:44;;;;;;;16.73;10.95;;;;;;;11.90;100.00;95589.34;1023267;29;20760;-65
2021/08/30 01:28:15;;;;;;;17.15;11.07;;;;;;;11.83;100.00;95580.97;1019766;29;20023;-65
2021/08/30 01:29:17;;;;;;;15.38;10.75;;;;;;;11.88;100.00;95583.59;1023209;29;20023;-66
2021/08/30 01:29:53;;;;;;;13.88;10.50;;;;;;;11.90;100.00;95591.19;1022794;28;20030;-62
2021/08/30 01:30:24;;;;;;;14.05;10.35;;;;;;;11.85;100.00;95584.13;1024890;28;20312;-64
2021/08/30 01:30:54;;;;;;;14.20;10.48;;;;;;;11.89;100.00;95590.41;1031172;28;20268;-65
2021/08/30 01:31:52;;;;;;;13.88;10.27;;;;;;;11.89;100.00;95593.03;1031481;28;20276;-63
2021/08/30 01:32:36;;;;;;;13.07;9.85;;;;;;;11.86;100.00;95584.94;1021305;28;20032;-65
2021/08/30 01:33:06;;;;;;;13.50;10.68;;;;;;;11.83;100.00;95586.22;1032495;28;20643;-65
2021/08/30 01:33:37;;;;;;;17.98;11.02;;;;;;;11.81;100.00;95580.47;1030838;28;20276;-65
2021/08/30 01:34:07;;;;;;;13.63;9.75;;;;;;;11.84;100.00;95584.38;1031069;28;20371;-64
2021/08/30 01:34:37;;;;;;;16.88;11.13;;;;;;;11.83;100.00;95586.22;1022983;29;20042;-65
2021/08/30 01:35:13;;;;;;;17.50;11.95;;;;;;;11.76;100.00;95578.63;1032246;28;20085;-65
2021/08/30 01:35:44;;;;;;;14.82;10.55;;;;;;;11.82;100.00;95586.50;1027559;28;20584;-65
2021/08/30 01:36:14;;;;;;;19.33;11.88;;;;;;;11.83;100.00;95586.22;1023154;29;20274;-66
2021/08/30 01:36:45;;;;;;;13.55;10.20;;;;;;;11.82;100.00;95589.91;1027199;28;20053;-64
2021/08/30 01:37:15;;;;;;;14.52;9.75;;;;;;;11.80;100.00;95579.69;1030865;28;20026;-65
2021/08/30 01:37:47;;;;;;;19.27;11.05;;;;;;;11.83;100.00;95586.22;1031352;28;20088;-65
2021/08/30 01:38:18;;;;;;;18.15;11.82;;;;;;;11.83;100.00;95583.59;1034782;28;20492;-62
2021/08/30 01:38:48;;;;;;;25.17;13.35;;;;;;;11.84;100.00;95581.75;1027156;28;20270;-62
2021/08/30 01:39:19;;;;;;;28.88;13.63;;;;;;;11.83;100.00;95580.97;1027240;28;20375;-64
2021/08/30 01:39:49;;;;;;;22.35;12.88;;;;;;;11.84;100.00;95581.75;1023565;28;20592;-65
2021/08/30 01:40:21;;;;;;;21.30;11.98;;;;;;;11.82;100.00;95589.91;1021453;29;20059;-64
2021/08/30 01:40:52;;;;;;;24.90;12.15;;;;;;;11.83;100.00;95588.06;1023412;29;20027;-64
2021/08/30 01:41:22;;;;;;;16.83;10.40;;;;;;;11.80;100.00;95582.31;1022549;29;20271;-65
2021/08/30 01:41:52;;;;;;;18.73;11.73;;;;;;;11.80;100.00;95584.94;1036380;28;20108;-64
2021/08/30 01:42:24;;;;;;;18.95;11.52;;;;;;;11.80;100.00;95590.19;1031279;28;20049;-61
2021/08/30 01:42:55;;;;;;;20.73;11.45;;;;;;;11.82;100.00;95583.88;1027080;28;20135;-64
2021/08/30 01:43:26;;;;;;;18.42;11.75;;;;;;;11.80;100.00;95584.94;1025157;28;20278;-63
2021/08/30 01:43:56;;;;;;;15.30;10.00;;;;;;;11.80;100.00;95594.66;1032064;28;20267;-65
2021/08/30 01:44:27;;;;;;;18.63;11.05;;;;;;;11.80;100.00;95586.75;1037901;28;20044;-63
2021/08/30 01:44:57;;;;;;;11.98;9.25;;;;;;;11.81;100.00;95583.09;1030929;28;20069;-64
2021/08/30 01:45:29;;;;;;;13.95;9.85;;;;;;;11.80;100.00;95586.75;1025763;28;20027;-65
2021/08/30 01:46:00;;;;;;;14.07;9.15;;;;;;;11.76;100.00;95583.91;1019585;28;20039;-65
2021/08/30 01:46:30;;;;;;;16.40;9.55;;;;;;;11.78;100.00;95584.41;1027303;28;20595;-63
2021/08/30 01:47:00;;;;;;;13.45;9.38;;;;;;;11.76;100.00;95578.63;1026894;28;20026;-64
2021/08/30 01:47:31;;;;;;;15.23;9.82;;;;;;;11.79;100.00;95585.19;1030465;28;20042;-64
2021/08/30 01:48:03;;;;;;;14.57;9.52;;;;;;;11.77;100.00;95587.34;1019324;29;20031;-64
2021/08/30 01:48:33;;;;;;;13.05;8.25;;;;;;;11.75;100.00;95576.28;1023278;28;20031;-64
2021/08/30 01:49:04;;;;;;;16.40;10.60;;;;;;;11.80;100.00;95587.56;1022917;29;20345;-64
2021/08/30 01:49:34;;;;;;;17.08;10.98;;;;;;;11.82;100.00;95589.13;1027215;28;20038;-64
2021/08/30 01:50:05;;;;;;;13.02;9.20;;;;;;;11.79;100.00;95585.97;1023012;29;20046;-63
2021/08/30 01:50:38;;;;;;;13.98;9.55;;;;;;;11.75;100.00;95577.06;1023367;28;20085;-65
2021/08/30 01:51:08;;;;;;;17.30;9.88;;;;;;;11.79;100.00;95577.31;1026784;28;20044;-64
2021/08/30 01:51:39;;;;;;;11.05;7.78;;;;;;;11.77;100.00;95577.59;1026077;28;20339;-64
2021/08/30 01:52:10;;;;;;;13.05;8.88;;;;;;;11.82;100.00;95576.00;1023297;29;20042;-64
2021/08/30 01:52:43;;;;;;;12.02;8.35;;;;;;;11.80;100.00;95578.88;1022511;28;20019;-64
2021/08/30 01:53:13;;;;;;;15.30;9.13;;;;;;;11.79;100.00;95574.69;1023021;29;20038;-64
2021/08/30 01:53:45;;;;;;;17.50;9.73;;;;;;;11.84;100.00;95582.59;1031245;28;20729;-64
2021/08/30 01:54:15;;;;;;;11.93;9.00;;;;;;;11.80;100.00;95582.31;1027232;28;20038;-64
2021/08/30 01:54:46;;;;;;;13.95;9.02;;;;;;;11.81;100.00;95583.09;1031050;28;20660;-64
2021/08/30 01:56:03;;;;;;;16.52;9.68;;;;;;;11.79;100.00;95579.94;1033105;28;20268;-64
2021/08/30 01:56:34;;;;;;;14.45;9.30;;;;;;;11.76;100.00;95573.38;1026794;28;20277;-64
2021/08/30 01:57:04;;;;;;;12.50;9.38;;;;;;;11.79;100.00;95577.31;1022829;28;20271;-64
2021/08/30 01:57:53;;;;;;;14.15;9.32;;;;;;;11.74;100.00;95569.47;1014988;29;20024;-65
2021/08/30 02:00:43;;;;;;;10.80;8.35;;;;;;;11.78;100.00;95586.28;1023672;28;20317;-65
2021/08/30 02:01:14;;;;;;;15.50;9.85;;;;;;;11.78;100.00;95573.13;1024478;28;20259;-63
2021/08/30 02:01:45;;;;;;;16.25;10.43;;;;;;;11.74;100.00;95572.88;1026769;28;20286;-65
2021/08/30 02:02:16;;;;;;;14.63;9.80;;;;;;;11.78;100.00;95578.38;1026712;28;20034;-64
2021/08/30 02:02:47;;;;;;;14.45;9.90;;;;;;;11.79;100.00;95577.31;1025401;28;20106;-64
2021/08/30 02:03:29;;;;;;;13.82;9.82;;;;;;;11.77;100.00;95579.44;1018965;29;20275;-64
2021/08/30 02:03:59;;;;;;;15.10;10.38;;;;;;;11.79;100.00;95585.97;1026900;28;20463;-64
2021/08/30 02:04:30;;;;;;;16.92;10.60;;;;;;;11.77;100.00;95572.34;1022232;28;20320;-63
2021/08/30 02:05:00;;;;;;;15.68;11.00;;;;;;;11.79;100.00;95579.94;1026542;28;20089;-64
2021/08/30 02:05:31;;;;;;;16.25;11.50;;;;;;;11.77;100.00;95577.59;1022724;29;20038;-64
2021/08/30 02:06:05;;;;;;;15.27;11.18;;;;;;;11.78;100.00;95578.38;1022554;29;20016;-64
2021/08/30 02:06:36;;;;;;;17.75;10.95;;;;;;;11.76;100.00;95576.00;1025951;28;20574;-64
2021/08/30 02:07:07;;;;;;;19.58;11.20;;;;;;;11.77;100.00;95576.81;1030557;28;20352;-64
2021/08/30 02:07:37;;;;;;;15.35;10.63;;;;;;;11.79;100.00;95578.09;1029514;28;20300;-64
2021/08/30 02:08:07;;;;;;;25.00;11.90;;;;;;;11.79;100.00;95574.69;1020660;28;20090;-64
2021/08/30 02:08:38;;;;;;;20.38;11.70;;;;;;;11.77;100.00;95574.97;1026596;28;20030;-64
2021/08/30 02:09:08;;;;;;;17.13;11.07;;;;;;;11.79;100.00;95574.69;1028494;28;20023;-64
2021/08/30 02:09:39;;;;;;;18.95;10.98;;;;;;;11.79;100.00;95572.06;1025982;28;20037;-64
2021/08/30 02:10:09;;;;;;;16.27;10.85;;;;;;;11.76;100.00;95564.72;1031024;28;20065;-62
2021/08/30 02:10:40;;;;;;;17.15;10.93;;;;;;;11.78;100.00;95573.13;1030845;28;20121;-65
2021/08/30 02:11:14;;;;;;;17.70;10.73;;;;;;;11.67;100.00;95555.84;1030237;28;20034;-62
2021/08/30 02:11:44;;;;;;;17.58;10.55;;;;;;;11.77;100.00;95571.56;1026551;28;20464;-64
2021/08/30 02:12:15;;;;;;;17.75;11.18;;;;;;;11.79;100.00;95569.44;1026833;28;20270;-64
2021/08/30 02:12:45;;;;;;;21.27;12.35;;;;;;;11.79;100.00;95574.69;1021453;28;20035;-64
2021/08/30 02:13:16;;;;;;;18.15;11.63;;;;;;;11.82;100.00;95571.50;1022394;29;20533;-64
2021/08/30 02:13:46;;;;;;;15.07;10.65;;;;;;;11.79;100.00;95572.06;1022980;29;20133;-64
2021/08/30 02:14:17;;;;;;;15.43;10.85;;;;;;;11.79;100.00;95572.84;1022742;28;20110;-64
2021/08/30 02:14:47;;;;;;;14.40;10.38;;;;;;;11.79;100.00;95564.16;1026839;28;20031;-64
2021/08/30 02:15:18;;;;;;;14.02;10.00;;;;;;;11.77;100.00;95572.34;1038915;28;20099;-62
2021/08/30 02:15:48;;;;;;;15.20;10.00;;;;;;;11.79;100.00;95566.81;1034633;28;20026;-64
2021/08/30 02:16:19;;;;;;;18.90;12.20;;;;;;;11.79;100.00;95569.44;1034660;28;20045;-65
2021/08/30 02:16:50;;;;;;;18.50;11.80;;;;;;;11.78;100.00;95567.88;1030771;28;20024;-64
2021/08/30 02:17:23;;;;;;;19.52;12.15;;;;;;;11.77;100.00;95564.47;1030977;28;20022;-64
2021/08/30 02:17:56;;;;;;;14.75;11.07;;;;;;;11.80;100.00;95565.72;1029272;28;20281;-64
2021/08/30 02:18:52;;;;;;;15.10;10.57;;;;;;;11.78;100.00;95566.03;1030685;28;20642;-64
2021/08/30 02:19:41;;;;;;;15.07;9.95;;;;;;;11.78;100.00;95562.59;1023123;28;20270;-64
2021/08/30 02:20:12;;;;;;;21.33;11.77;;;;;;;11.78;100.00;95558.13;1030163;28;20699;-63
2021/08/30 02:20:47;;;;;;;15.63;11.00;;;;;;;11.81;100.00;95562.06;1030737;28;20269;-64
2021/08/30 02:21:43;;;;;;;14.20;10.13;;;;;;;11.80;100.00;95556.03;1029614;28;20327;-62
2021/08/30 02:22:15;;;;;;;15.30;10.25;;;;;;;11.76;100.00;95559.47;1030481;28;20822;-63
2021/08/30 02:22:46;;;;;;;12.02;9.55;;;;;;;11.77;100.00;95555.78;1030752;28;20331;-64
2021/08/30 02:23:16;;;;;;;15.15;10.35;;;;;;;11.73;100.00;95554.75;1035903;28;20307;-64
2021/08/30 02:23:56;;;;;;;14.15;9.88;;;;;;;11.76;100.00;95562.09;1034836;28;20117;-64
2021/08/30 02:24:35;;;;;;;18.75;10.68;;;;;;;11.76;100.00;95564.72;1033378;28;20693;-64
2021/08/30 02:25:13;;;;;;;16.05;11.20;;;;;;;11.75;100.00;95557.91;1032295;28;20254;-64
2021/08/30 02:25:44;;;;;;;15.55;10.82;;;;;;;11.73;100.00;95550.28;1034821;28;20268;-64
2021/08/30 02:26:17;;;;;;;19.45;11.00;;;;;;;11.71;100.00;95552.41;1034488;28;20276;-63
2021/08/30 02:27:00;;;;;;;16.30;10.77;;;;;;;11.74;100.00;95562.38;1026207;28;20011;-64
2021/08/30 02:27:53;;;;;;;17.05;11.05;;;;;;;11.75;100.00;95557.91;1026781;28;20309;-63
2021/08/30 02:28:24;;;;;;;17.63;10.55;;;;;;;11.73;100.00;95554.75;1026866;28;20290;-64
2021/08/30 02:28:54;;;;;;;16.63;10.32;;;;;;;11.72;100.00;95556.59;1026854;28;20748;-65
2021/08/30 02:29:26;;;;;;;20.15;11.98;;;;;;;11.68;100.00;95552.16;1029670;28;20045;-64
2021/08/30 02:30:01;;;;;;;14.00;9.30;;;;;;;11.72;100.00;95558.44;1026436;28;20413;-64
2021/08/30 02:30:34;;;;;;;16.77;10.50;;;;;;;11.67;100.00;95547.94;1027387;28;20799;-63
2021/08/30 02:31:04;;;;;;;14.70;9.57;;;;;;;11.64;100.00;95541.41;1026859;28;20709;-64